sensor_id;sensor_type;location;lat;lon;timestamp;temperature;humidity
67093;SHT31;54011;50.772;7.730;2023-04-25T00:00:27;11.21;65.10
67093;SHT31;54011;50.772;7.730;2023-04-25T00:02:54;11.25;65.03
67093;SHT31;54011;50.772;7.730;2023-04-25T00:05:25;10.87;65.66
67093;SHT31;54011;50.772;7.730;2023-04-25T00:07:52;10.93;65.97
67093;SHT31;54011;50.772;7.730;2023-04-25T00:10:19;11.01;65.44
67093;SHT31;54011;50.772;7.730;2023-04-25T00:12:45;10.85;65.69
67093;SHT31;54011;50.772;7.730;2023-04-25T00:15:11;11.10;65.21
67093;SHT31;54011;50.772;7.730;2023-04-25T00:17:37;11.04;65.01
67093;SHT31;54011;50.772;7.730;2023-04-25T00:20:04;10.74;66.14
67093;SHT31;54011;50.772;7.730;2023-04-25T00:22:36;10.93;65.53
67093;SHT31;54011;50.772;7.730;2023-04-25T00:25:06;10.90;65.70
67093;SHT31;54011;50.772;7.730;2023-04-25T00:27:32;11.18;65.01
67093;SHT31;54011;50.772;7.730;2023-04-25T00:29:59;10.71;65.90
67093;SHT31;54011;50.772;7.730;2023-04-25T00:32:27;10.64;66.23
67093;SHT31;54011;50.772;7.730;2023-04-25T00:34:52;10.98;65.61
67093;SHT31;54011;50.772;7.730;2023-04-25T00:37:18;10.98;65.64
67093;SHT31;54011;50.772;7.730;2023-04-25T00:39:45;11.05;65.27
67093;SHT31;54011;50.772;7.730;2023-04-25T00:42:12;10.98;65.35
67093;SHT31;54011;50.772;7.730;2023-04-25T00:44:38;10.91;65.76
67093;SHT31;54011;50.772;7.730;2023-04-25T00:47:04;10.84;65.98
67093;SHT31;54011;50.772;7.730;2023-04-25T00:49:30;10.64;66.12
67093;SHT31;54011;50.772;7.730;2023-04-25T00:51:56;10.78;65.85
67093;SHT31;54011;50.772;7.730;2023-04-25T00:54:22;10.74;66.06
67093;SHT31;54011;50.772;7.730;2023-04-25T00:56:48;11.18;65.09
67093;SHT31;54011;50.772;7.730;2023-04-25T00:59:14;11.17;64.81
67093;SHT31;54011;50.772;7.730;2023-04-25T01:01:40;11.12;64.93
67093;SHT31;54011;50.772;7.730;2023-04-25T01:04:06;11.11;65.40
67093;SHT31;54011;50.772;7.730;2023-04-25T01:06:32;10.66;65.84
67093;SHT31;54011;50.772;7.730;2023-04-25T01:08:59;11.00;65.68
67093;SHT31;54011;50.772;7.730;2023-04-25T01:11:30;11.10;65.35
67093;SHT31;54011;50.772;7.730;2023-04-25T01:13:57;11.04;65.31
67093;SHT31;54011;50.772;7.730;2023-04-25T01:16:23;10.93;65.83
67093;SHT31;54011;50.772;7.730;2023-04-25T01:18:50;10.40;67.02
67093;SHT31;54011;50.772;7.730;2023-04-25T01:21:17;10.52;67.02
67093;SHT31;54011;50.772;7.730;2023-04-25T01:23:45;10.61;66.78
67093;SHT31;54011;50.772;7.730;2023-04-25T01:26:13;10.29;67.67
67093;SHT31;54011;50.772;7.730;2023-04-25T01:28:39;10.63;66.43
67093;SHT31;54011;50.772;7.730;2023-04-25T01:31:12;10.47;66.84
67093;SHT31;54011;50.772;7.730;2023-04-25T01:33:38;10.61;66.29
67093;SHT31;54011;50.772;7.730;2023-04-25T01:36:04;10.36;66.93
67093;SHT31;54011;50.772;7.730;2023-04-25T01:38:31;10.73;66.02
67093;SHT31;54011;50.772;7.730;2023-04-25T01:40:59;10.13;67.39
67093;SHT31;54011;50.772;7.730;2023-04-25T01:43:26;10.20;67.75
67093;SHT31;54011;50.772;7.730;2023-04-25T01:45:52;10.05;67.97
67093;SHT31;54011;50.772;7.730;2023-04-25T01:48:19;10.30;67.44
67093;SHT31;54011;50.772;7.730;2023-04-25T01:50:47;10.25;67.74
67093;SHT31;54011;50.772;7.730;2023-04-25T01:53:13;10.25;67.84
67093;SHT31;54011;50.772;7.730;2023-04-25T01:55:39;10.03;68.26
67093;SHT31;54011;50.772;7.730;2023-04-25T01:58:08;10.45;67.17
67093;SHT31;54011;50.772;7.730;2023-04-25T02:00:57;10.42;67.48
67093;SHT31;54011;50.772;7.730;2023-04-25T02:03:25;10.63;66.62
67093;SHT31;54011;50.772;7.730;2023-04-25T02:05:52;10.85;65.94
67093;SHT31;54011;50.772;7.730;2023-04-25T02:08:18;10.74;66.37
67093;SHT31;54011;50.772;7.730;2023-04-25T02:10:44;10.73;66.43
67093;SHT31;54011;50.772;7.730;2023-04-25T02:13:15;10.91;66.30
67093;SHT31;54011;50.772;7.730;2023-04-25T02:15:59;11.01;65.89
67093;SHT31;54011;50.772;7.730;2023-04-25T02:18:24;11.12;65.88
67093;SHT31;54011;50.772;7.730;2023-04-25T02:20:53;11.25;65.52
67093;SHT31;54011;50.772;7.730;2023-04-25T02:23:19;10.87;66.38
67093;SHT31;54011;50.772;7.730;2023-04-25T02:25:45;11.04;65.94
67093;SHT31;54011;50.772;7.730;2023-04-25T02:28:13;11.04;66.10
67093;SHT31;54011;50.772;7.730;2023-04-25T02:30:39;11.32;65.15
67093;SHT31;54011;50.772;7.730;2023-04-25T02:33:04;11.17;65.55
67093;SHT31;54011;50.772;7.730;2023-04-25T02:35:30;11.01;65.63
67093;SHT31;54011;50.772;7.730;2023-04-25T02:37:56;10.96;66.35
67093;SHT31;54011;50.772;7.730;2023-04-25T02:40:23;10.85;66.22
67093;SHT31;54011;50.772;7.730;2023-04-25T02:42:49;11.03;65.99
67093;SHT31;54011;50.772;7.730;2023-04-25T02:45:16;11.11;65.69
67093;SHT31;54011;50.772;7.730;2023-04-25T02:47:43;10.87;66.03
67093;SHT31;54011;50.772;7.730;2023-04-25T02:50:10;10.66;66.42
67093;SHT31;54011;50.772;7.730;2023-04-25T02:52:36;10.66;66.83
67093;SHT31;54011;50.772;7.730;2023-04-25T02:55:10;10.60;66.61
67093;SHT31;54011;50.772;7.730;2023-04-25T02:57:37;10.36;67.33
67093;SHT31;54011;50.772;7.730;2023-04-25T03:00:04;10.61;67.05
67093;SHT31;54011;50.772;7.730;2023-04-25T03:02:30;10.26;67.33
67093;SHT31;54011;50.772;7.730;2023-04-25T03:04:57;10.46;67.12
67093;SHT31;54011;50.772;7.730;2023-04-25T03:07:23;10.53;66.99
67093;SHT31;54011;50.772;7.730;2023-04-25T03:09:48;10.55;66.87
67093;SHT31;54011;50.772;7.730;2023-04-25T03:12:15;10.42;67.10
67093;SHT31;54011;50.772;7.730;2023-04-25T03:14:41;10.03;67.78
67093;SHT31;54011;50.772;7.730;2023-04-25T03:17:08;10.26;67.54
67093;SHT31;54011;50.772;7.730;2023-04-25T03:19:34;10.15;67.67
67093;SHT31;54011;50.772;7.730;2023-04-25T03:22:01;10.20;67.32
67093;SHT31;54011;50.772;7.730;2023-04-25T03:24:26;9.99;67.74
67093;SHT31;54011;50.772;7.730;2023-04-25T03:26:52;10.19;67.28
67093;SHT31;54011;50.772;7.730;2023-04-25T03:29:18;10.32;67.08
67093;SHT31;54011;50.772;7.730;2023-04-25T03:31:45;10.33;67.09
67093;SHT31;54011;50.772;7.730;2023-04-25T03:34:12;10.06;67.41
67093;SHT31;54011;50.772;7.730;2023-04-25T03:36:41;9.98;67.77
67093;SHT31;54011;50.772;7.730;2023-04-25T03:39:06;9.92;67.68
67093;SHT31;54011;50.772;7.730;2023-04-25T03:41:37;10.03;67.42
67093;SHT31;54011;50.772;7.730;2023-04-25T03:44:08;9.99;67.32
67093;SHT31;54011;50.772;7.730;2023-04-25T03:46:35;9.73;68.39
67093;SHT31;54011;50.772;7.730;2023-04-25T03:49:00;9.84;67.73
67093;SHT31;54011;50.772;7.730;2023-04-25T03:51:39;9.55;68.91
67093;SHT31;54011;50.772;7.730;2023-04-25T03:54:04;9.55;68.60
67093;SHT31;54011;50.772;7.730;2023-04-25T03:56:39;9.77;68.24
67093;SHT31;54011;50.772;7.730;2023-04-25T03:59:14;10.01;67.28
67093;SHT31;54011;50.772;7.730;2023-04-25T04:01:41;9.98;67.28
67093;SHT31;54011;50.772;7.730;2023-04-25T04:04:06;9.99;67.33
67093;SHT31;54011;50.772;7.730;2023-04-25T04:06:33;10.01;67.14
67093;SHT31;54011;50.772;7.730;2023-04-25T04:09:10;9.94;67.55
67093;SHT31;54011;50.772;7.730;2023-04-25T04:11:39;9.58;68.12
67093;SHT31;54011;50.772;7.730;2023-04-25T04:14:05;9.68;68.56
67093;SHT31;54011;50.772;7.730;2023-04-25T04:16:31;9.65;68.69
67093;SHT31;54011;50.772;7.730;2023-04-25T04:18:59;9.75;68.24
67093;SHT31;54011;50.772;7.730;2023-04-25T04:21:26;9.88;67.82
67093;SHT31;54011;50.772;7.730;2023-04-25T04:24:00;9.99;67.45
67093;SHT31;54011;50.772;7.730;2023-04-25T04:26:32;10.02;67.58
67093;SHT31;54011;50.772;7.730;2023-04-25T04:29:21;9.47;69.46
67093;SHT31;54011;50.772;7.730;2023-04-25T04:31:59;9.59;69.49
67093;SHT31;54011;50.772;7.730;2023-04-25T04:34:26;9.73;69.44
67093;SHT31;54011;50.772;7.730;2023-04-25T04:36:52;10.03;68.27
67093;SHT31;54011;50.772;7.730;2023-04-25T04:39:18;10.06;67.79
67093;SHT31;54011;50.772;7.730;2023-04-25T04:41:58;9.78;69.13
67093;SHT31;54011;50.772;7.730;2023-04-25T04:44:44;9.99;68.49
67093;SHT31;54011;50.772;7.730;2023-04-25T04:47:23;10.02;68.72
67093;SHT31;54011;50.772;7.730;2023-04-25T04:50:03;10.19;67.84
67093;SHT31;54011;50.772;7.730;2023-04-25T04:52:38;10.05;68.15
67093;SHT31;54011;50.772;7.730;2023-04-25T04:55:31;9.98;68.66
67093;SHT31;54011;50.772;7.730;2023-04-25T04:58:21;9.94;68.54
67093;SHT31;54011;50.772;7.730;2023-04-25T05:01:17;10.42;67.69
67093;SHT31;54011;50.772;7.730;2023-04-25T05:04:03;9.82;68.88
67093;SHT31;54011;50.772;7.730;2023-04-25T05:07:01;10.52;67.62
67093;SHT31;54011;50.772;7.730;2023-04-25T05:09:45;10.33;68.35
67093;SHT31;54011;50.772;7.730;2023-04-25T05:12:29;10.77;66.92
67093;SHT31;54011;50.772;7.730;2023-04-25T05:15:06;10.94;66.45
67093;SHT31;54011;50.772;7.730;2023-04-25T05:17:41;10.70;66.63
67093;SHT31;54011;50.772;7.730;2023-04-25T05:20:34;10.74;67.29
67093;SHT31;54011;50.772;7.730;2023-04-25T05:23:12;10.63;67.70
67093;SHT31;54011;50.772;7.730;2023-04-25T05:26:05;10.73;67.04
67093;SHT31;54011;50.772;7.730;2023-04-25T05:29:03;10.66;67.79
67093;SHT31;54011;50.772;7.730;2023-04-25T05:31:53;9.96;68.73
67093;SHT31;54011;50.772;7.730;2023-04-25T05:34:18;10.39;68.74
67093;SHT31;54011;50.772;7.730;2023-04-25T05:36:56;10.37;68.65
67093;SHT31;54011;50.772;7.730;2023-04-25T05:39:21;10.85;67.77
67093;SHT31;54011;50.772;7.730;2023-04-25T05:42:09;10.61;68.02
67093;SHT31;54011;50.772;7.730;2023-04-25T05:44:54;10.87;67.78
67093;SHT31;54011;50.772;7.730;2023-04-25T05:47:30;10.67;67.41
67093;SHT31;54011;50.772;7.730;2023-04-25T05:50:04;10.66;68.21
67093;SHT31;54011;50.772;7.730;2023-04-25T05:52:50;10.93;67.45
67093;SHT31;54011;50.772;7.730;2023-04-25T05:55:35;10.71;68.19
67093;SHT31;54011;50.772;7.730;2023-04-25T05:58:10;10.81;67.34
67093;SHT31;54011;50.772;7.730;2023-04-25T06:00:36;10.90;67.14
67093;SHT31;54011;50.772;7.730;2023-04-25T06:03:03;11.05;67.56
67093;SHT31;54011;50.772;7.730;2023-04-25T06:05:29;11.08;67.43
67093;SHT31;54011;50.772;7.730;2023-04-25T06:07:54;10.90;67.90
67093;SHT31;54011;50.772;7.730;2023-04-25T06:10:21;11.28;67.14
67093;SHT31;54011;50.772;7.730;2023-04-25T06:12:49;11.34;66.84
67093;SHT31;54011;50.772;7.730;2023-04-25T06:15:18;10.90;67.73
67093;SHT31;54011;50.772;7.730;2023-04-25T06:17:47;11.34;66.28
67093;SHT31;54011;50.772;7.730;2023-04-25T06:20:13;11.65;66.00
67093;SHT31;54011;50.772;7.730;2023-04-25T06:22:39;11.40;66.79
67093;SHT31;54011;50.772;7.730;2023-04-25T06:25:05;11.61;66.98
67093;SHT31;54011;50.772;7.730;2023-04-25T06:27:33;11.51;66.78
67093;SHT31;54011;50.772;7.730;2023-04-25T06:29:59;11.43;67.77
67093;SHT31;54011;50.772;7.730;2023-04-25T06:32:25;11.48;66.90
67093;SHT31;54011;50.772;7.730;2023-04-25T06:34:53;11.10;67.39
67093;SHT31;54011;50.772;7.730;2023-04-25T06:37:18;11.31;67.35
67093;SHT31;54011;50.772;7.730;2023-04-25T06:39:44;11.45;66.50
67093;SHT31;54011;50.772;7.730;2023-04-25T06:42:10;11.38;67.04
67093;SHT31;54011;50.772;7.730;2023-04-25T06:44:40;11.65;66.04
67093;SHT31;54011;50.772;7.730;2023-04-25T06:47:08;11.69;65.67
67093;SHT31;54011;50.772;7.730;2023-04-25T06:49:34;12.06;65.30
67093;SHT31;54011;50.772;7.730;2023-04-25T06:52:00;12.12;64.68
67093;SHT31;54011;50.772;7.730;2023-04-25T06:54:26;11.93;65.69
67093;SHT31;54011;50.772;7.730;2023-04-25T06:57:00;11.70;65.37
67093;SHT31;54011;50.772;7.730;2023-04-25T06:59:27;12.04;65.58
67093;SHT31;54011;50.772;7.730;2023-04-25T07:01:52;11.96;64.93
67093;SHT31;54011;50.772;7.730;2023-04-25T07:04:26;12.34;64.01
67093;SHT31;54011;50.772;7.730;2023-04-25T07:06:54;11.67;65.22
67093;SHT31;54011;50.772;7.730;2023-04-25T07:09:27;12.08;65.44
67093;SHT31;54011;50.772;7.730;2023-04-25T07:11:53;12.13;63.69
67093;SHT31;54011;50.772;7.730;2023-04-25T07:14:19;12.59;62.84
67093;SHT31;54011;50.772;7.730;2023-04-25T07:16:46;12.47;63.71
67093;SHT31;54011;50.772;7.730;2023-04-25T07:19:12;12.65;63.87
67093;SHT31;54011;50.772;7.730;2023-04-25T07:21:41;12.82;62.26
67093;SHT31;54011;50.772;7.730;2023-04-25T07:24:07;13.53;60.61
67093;SHT31;54011;50.772;7.730;2023-04-25T07:26:36;12.88;61.64
67093;SHT31;54011;50.772;7.730;2023-04-25T07:29:15;11.97;62.78
67093;SHT31;54011;50.772;7.730;2023-04-25T07:31:44;11.75;63.00
67093;SHT31;54011;50.772;7.730;2023-04-25T07:34:10;12.65;61.49
67093;SHT31;54011;50.772;7.730;2023-04-25T07:36:37;13.02;60.74
67093;SHT31;54011;50.772;7.730;2023-04-25T07:39:06;13.58;58.23
67093;SHT31;54011;50.772;7.730;2023-04-25T07:41:32;13.40;58.27
67093;SHT31;54011;50.772;7.730;2023-04-25T07:43:58;13.27;57.12
67093;SHT31;54011;50.772;7.730;2023-04-25T07:46:24;13.44;57.76
67093;SHT31;54011;50.772;7.730;2023-04-25T07:48:51;13.54;56.31
67093;SHT31;54011;50.772;7.730;2023-04-25T07:51:19;13.94;56.66
67093;SHT31;54011;50.772;7.730;2023-04-25T07:53:46;13.73;56.78
67093;SHT31;54011;50.772;7.730;2023-04-25T07:56:14;13.78;56.69
67093;SHT31;54011;50.772;7.730;2023-04-25T07:58:44;13.57;58.29
67093;SHT31;54011;50.772;7.730;2023-04-25T08:01:13;13.34;57.65
67093;SHT31;54011;50.772;7.730;2023-04-25T08:03:46;13.12;57.94
67093;SHT31;54011;50.772;7.730;2023-04-25T08:06:22;13.17;58.34
67093;SHT31;54011;50.772;7.730;2023-04-25T08:08:56;13.24;57.94
67093;SHT31;54011;50.772;7.730;2023-04-25T08:11:28;12.85;57.94
67093;SHT31;54011;50.772;7.730;2023-04-25T08:13:56;13.39;56.79
67093;SHT31;54011;50.772;7.730;2023-04-25T08:16:22;14.00;56.83
67093;SHT31;54011;50.772;7.730;2023-04-25T08:18:48;14.05;56.23
67093;SHT31;54011;50.772;7.730;2023-04-25T08:21:14;13.98;54.69
67093;SHT31;54011;50.772;7.730;2023-04-25T08:23:40;15.18;53.69
67093;SHT31;54011;50.772;7.730;2023-04-25T08:26:20;16.27;53.35
67093;SHT31;54011;50.772;7.730;2023-04-25T08:28:49;16.16;51.82
67093;SHT31;54011;50.772;7.730;2023-04-25T08:31:15;15.32;50.89
67093;SHT31;54011;50.772;7.730;2023-04-25T08:33:54;14.94;52.06
67093;SHT31;54011;50.772;7.730;2023-04-25T08:36:36;14.21;53.77
67093;SHT31;54011;50.772;7.730;2023-04-25T08:39:02;12.82;54.72
67093;SHT31;54011;50.772;7.730;2023-04-25T08:41:30;14.02;53.61
67093;SHT31;54011;50.772;7.730;2023-04-25T08:43:59;13.34;53.30
67093;SHT31;54011;50.772;7.730;2023-04-25T08:46:26;13.79;53.19
67093;SHT31;54011;50.772;7.730;2023-04-25T08:49:12;13.32;53.69
67093;SHT31;54011;50.772;7.730;2023-04-25T08:51:45;13.05;54.76
67093;SHT31;54011;50.772;7.730;2023-04-25T08:54:20;13.40;53.66
67093;SHT31;54011;50.772;7.730;2023-04-25T08:56:47;14.39;54.59
67093;SHT31;54011;50.772;7.730;2023-04-25T08:59:13;13.42;53.44
67093;SHT31;54011;50.772;7.730;2023-04-25T09:01:40;13.06;53.67
67093;SHT31;54011;50.772;7.730;2023-04-25T09:04:06;13.70;53.71
67093;SHT31;54011;50.772;7.730;2023-04-25T09:06:32;13.67;53.41
67093;SHT31;54011;50.772;7.730;2023-04-25T09:09:05;14.50;52.28
67093;SHT31;54011;50.772;7.730;2023-04-25T09:11:32;14.26;52.09
67093;SHT31;54011;50.772;7.730;2023-04-25T09:14:19;13.26;53.13
67093;SHT31;54011;50.772;7.730;2023-04-25T09:17:06;15.52;51.17
67093;SHT31;54011;50.772;7.730;2023-04-25T09:19:43;15.28;49.83
67093;SHT31;54011;50.772;7.730;2023-04-25T09:22:18;15.61;48.03
67093;SHT31;54011;50.772;7.730;2023-04-25T09:24:47;16.00;48.32
67093;SHT31;54011;50.772;7.730;2023-04-25T09:27:21;15.51;49.01
67093;SHT31;54011;50.772;7.730;2023-04-25T09:30:16;15.38;47.98
67093;SHT31;54011;50.772;7.730;2023-04-25T09:33:07;14.36;46.78
67093;SHT31;54011;50.772;7.730;2023-04-25T09:35:37;14.65;45.96
67093;SHT31;54011;50.772;7.730;2023-04-25T09:38:13;13.73;47.44
67093;SHT31;54011;50.772;7.730;2023-04-25T09:40:55;14.21;47.71
67093;SHT31;54011;50.772;7.730;2023-04-25T09:43:33;14.28;47.58
67093;SHT31;54011;50.772;7.730;2023-04-25T09:45:58;13.39;49.34
67093;SHT31;54011;50.772;7.730;2023-04-25T09:48:27;13.91;49.79
67093;SHT31;54011;50.772;7.730;2023-04-25T09:51:12;13.82;49.62
67093;SHT31;54011;50.772;7.730;2023-04-25T09:53:44;13.79;50.09
67093;SHT31;54011;50.772;7.730;2023-04-25T09:56:29;13.44;50.09
67093;SHT31;54011;50.772;7.730;2023-04-25T09:58:59;12.88;51.83
67093;SHT31;54011;50.772;7.730;2023-04-25T10:01:27;13.79;51.38
67093;SHT31;54011;50.772;7.730;2023-04-25T10:04:05;13.85;50.66
67093;SHT31;54011;50.772;7.730;2023-04-25T10:06:55;14.29;50.34
67093;SHT31;54011;50.772;7.730;2023-04-25T10:09:25;13.30;51.00
67093;SHT31;54011;50.772;7.730;2023-04-25T10:11:52;13.89;49.73
67093;SHT31;54011;50.772;7.730;2023-04-25T10:14:21;13.61;48.53
67093;SHT31;54011;50.772;7.730;2023-04-25T10:16:47;14.09;48.74
67093;SHT31;54011;50.772;7.730;2023-04-25T10:19:14;14.47;48.53
67093;SHT31;54011;50.772;7.730;2023-04-25T10:22:14;15.15;45.90
67093;SHT31;54011;50.772;7.730;2023-04-25T10:24:42;14.91;45.76
67093;SHT31;54011;50.772;7.730;2023-04-25T10:27:11;14.96;46.01
67093;SHT31;54011;50.772;7.730;2023-04-25T10:29:41;15.75;42.97
67093;SHT31;54011;50.772;7.730;2023-04-25T10:32:09;15.18;44.22
67093;SHT31;54011;50.772;7.730;2023-04-25T10:34:42;15.92;43.52
67093;SHT31;54011;50.772;7.730;2023-04-25T10:37:10;15.66;42.17
67093;SHT31;54011;50.772;7.730;2023-04-25T10:39:43;16.94;40.99
67093;SHT31;54011;50.772;7.730;2023-04-25T10:42:08;16.74;41.56
67093;SHT31;54011;50.772;7.730;2023-04-25T10:44:39;16.31;42.17
67093;SHT31;54011;50.772;7.730;2023-04-25T10:47:07;16.69;41.68
67093;SHT31;54011;50.772;7.730;2023-04-25T10:49:35;16.09;41.47
67093;SHT31;54011;50.772;7.730;2023-04-25T10:52:18;16.61;42.71
67093;SHT31;54011;50.772;7.730;2023-04-25T10:54:57;16.45;42.61
67093;SHT31;54011;50.772;7.730;2023-04-25T10:59:58;16.47;41.92
67093;SHT31;54011;50.772;7.730;2023-04-25T11:02:28;15.90;41.52
67093;SHT31;54011;50.772;7.730;2023-04-25T11:04:55;14.79;45.31
67093;SHT31;54011;50.772;7.730;2023-04-25T11:07:38;14.29;46.60
67093;SHT31;54011;50.772;7.730;2023-04-25T11:10:05;14.19;46.32
67093;SHT31;54011;50.772;7.730;2023-04-25T11:12:31;14.53;46.27
67093;SHT31;54011;50.772;7.730;2023-04-25T11:15:05;13.97;49.76
67093;SHT31;54011;50.772;7.730;2023-04-25T11:17:33;14.35;51.59
67093;SHT31;54011;50.772;7.730;2023-04-25T11:20:00;13.13;52.79
67093;SHT31;54011;50.772;7.730;2023-04-25T11:22:27;12.28;55.08
67093;SHT31;54011;50.772;7.730;2023-04-25T11:24:53;13.17;53.14
67093;SHT31;54011;50.772;7.730;2023-04-25T11:27:21;14.35;52.39
67093;SHT31;54011;50.772;7.730;2023-04-25T11:29:47;14.26;51.64
67093;SHT31;54011;50.772;7.730;2023-04-25T11:32:17;15.14;50.97
67093;SHT31;54011;50.772;7.730;2023-04-25T11:34:44;17.09;47.84
67093;SHT31;54011;50.772;7.730;2023-04-25T11:37:10;16.05;48.57
67093;SHT31;54011;50.772;7.730;2023-04-25T11:39:37;18.70;43.24
67093;SHT31;54011;50.772;7.730;2023-04-25T11:42:04;19.52;43.55
67093;SHT31;54011;50.772;7.730;2023-04-25T11:44:31;19.61;40.88
67093;SHT31;54011;50.772;7.730;2023-04-25T11:46:56;19.10;35.93
67093;SHT31;54011;50.772;7.730;2023-04-25T11:49:21;18.43;39.56
67093;SHT31;54011;50.772;7.730;2023-04-25T11:51:48;19.43;39.26
67093;SHT31;54011;50.772;7.730;2023-04-25T11:54:15;18.22;41.65
67093;SHT31;54011;50.772;7.730;2023-04-25T11:56:41;17.18;41.16
67093;SHT31;54011;50.772;7.730;2023-04-25T11:59:07;16.72;44.32
67093;SHT31;54011;50.772;7.730;2023-04-25T12:01:37;15.75;43.82
67093;SHT31;54011;50.772;7.730;2023-04-25T12:04:16;15.42;46.27
67093;SHT31;54011;50.772;7.730;2023-04-25T12:06:45;15.20;47.44
67093;SHT31;54011;50.772;7.730;2023-04-25T12:09:16;14.96;51.23
67093;SHT31;54011;50.772;7.730;2023-04-25T12:11:48;15.83;50.54
67093;SHT31;54011;50.772;7.730;2023-04-25T12:14:23;14.29;49.70
67093;SHT31;54011;50.772;7.730;2023-04-25T12:16:50;15.52;49.38
67093;SHT31;54011;50.772;7.730;2023-04-25T12:19:19;15.24;47.86
67093;SHT31;54011;50.772;7.730;2023-04-25T12:21:45;14.63;49.28
67093;SHT31;54011;50.772;7.730;2023-04-25T12:24:15;15.36;46.31
67093;SHT31;54011;50.772;7.730;2023-04-25T12:29:21;14.94;46.55
67093;SHT31;54011;50.772;7.730;2023-04-25T12:31:49;14.81;47.05
67093;SHT31;54011;50.772;7.730;2023-04-25T12:34:15;15.58;45.68
67093;SHT31;54011;50.772;7.730;2023-04-25T12:36:43;16.44;43.69
67093;SHT31;54011;50.772;7.730;2023-04-25T12:39:15;16.16;43.83
67093;SHT31;54011;50.772;7.730;2023-04-25T12:41:43;15.95;42.61
67093;SHT31;54011;50.772;7.730;2023-04-25T12:44:10;16.20;43.23
67093;SHT31;54011;50.772;7.730;2023-04-25T12:46:37;17.43;40.90
67093;SHT31;54011;50.772;7.730;2023-04-25T12:49:05;18.14;39.27
67093;SHT31;54011;50.772;7.730;2023-04-25T12:51:37;18.86;38.21
67093;SHT31;54011;50.772;7.730;2023-04-25T12:54:14;17.85;38.49
67093;SHT31;54011;50.772;7.730;2023-04-25T12:56:40;19.44;38.12
67093;SHT31;54011;50.772;7.730;2023-04-25T12:59:06;19.62;36.78
67093;SHT31;54011;50.772;7.730;2023-04-25T13:01:31;19.64;36.25
67093;SHT31;54011;50.772;7.730;2023-04-25T13:03:57;18.19;41.47
67093;SHT31;54011;50.772;7.730;2023-04-25T13:06:24;16.88;41.25
67093;SHT31;54011;50.772;7.730;2023-04-25T13:08:49;16.07;42.04
67093;SHT31;54011;50.772;7.730;2023-04-25T13:11:18;17.51;44.31
67093;SHT31;54011;50.772;7.730;2023-04-25T13:13:44;19.35;38.78
67093;SHT31;54011;50.772;7.730;2023-04-25T13:16:10;19.43;38.57
67093;SHT31;54011;50.772;7.730;2023-04-25T13:18:38;20.84;35.33
67093;SHT31;54011;50.772;7.730;2023-04-25T13:21:04;18.53;38.68
67093;SHT31;54011;50.772;7.730;2023-04-25T13:23:30;21.09;35.64
67093;SHT31;54011;50.772;7.730;2023-04-25T13:25:57;20.68;33.16
67093;SHT31;54011;50.772;7.730;2023-04-25T13:28:24;20.75;33.54
67093;SHT31;54011;50.772;7.730;2023-04-25T13:30:49;18.55;34.08
67093;SHT31;54011;50.772;7.730;2023-04-25T13:33:15;18.90;33.93
67093;SHT31;54011;50.772;7.730;2023-04-25T13:35:42;18.12;36.01
67093;SHT31;54011;50.772;7.730;2023-04-25T13:38:09;17.97;35.71
67093;SHT31;54011;50.772;7.730;2023-04-25T13:40:35;17.83;36.92
67093;SHT31;54011;50.772;7.730;2023-04-25T13:43:01;18.24;35.09
67093;SHT31;54011;50.772;7.730;2023-04-25T13:45:29;18.94;34.25
67093;SHT31;54011;50.772;7.730;2023-04-25T13:47:54;16.99;37.30
67093;SHT31;54011;50.772;7.730;2023-04-25T13:50:20;16.41;38.34
67093;SHT31;54011;50.772;7.730;2023-04-25T13:52:45;15.93;40.55
67093;SHT31;54011;50.772;7.730;2023-04-25T13:55:12;16.20;40.39
67093;SHT31;54011;50.772;7.730;2023-04-25T13:57:38;17.57;38.00
67093;SHT31;54011;50.772;7.730;2023-04-25T14:00:04;16.84;37.15
67093;SHT31;54011;50.772;7.730;2023-04-25T14:02:35;19.55;36.17
67093;SHT31;54011;50.772;7.730;2023-04-25T14:05:02;21.16;33.66
67093;SHT31;54011;50.772;7.730;2023-04-25T14:07:29;21.22;34.37
67093;SHT31;54011;50.772;7.730;2023-04-25T14:09:55;18.43;36.18
67093;SHT31;54011;50.772;7.730;2023-04-25T14:12:23;17.11;39.20
67093;SHT31;54011;50.772;7.730;2023-04-25T14:14:49;16.68;37.80
67093;SHT31;54011;50.772;7.730;2023-04-25T14:17:14;16.54;39.79
67093;SHT31;54011;50.772;7.730;2023-04-25T14:19:40;15.86;40.15
67093;SHT31;54011;50.772;7.730;2023-04-25T14:22:09;15.79;40.29
67093;SHT31;54011;50.772;7.730;2023-04-25T14:24:35;16.55;38.89
67093;SHT31;54011;50.772;7.730;2023-04-25T14:27:01;16.51;39.78
67093;SHT31;54011;50.772;7.730;2023-04-25T14:29:27;16.03;38.57
67093;SHT31;54011;50.772;7.730;2023-04-25T14:31:53;17.26;39.03
67093;SHT31;54011;50.772;7.730;2023-04-25T14:34:19;19.76;34.83
67093;SHT31;54011;50.772;7.730;2023-04-25T14:36:45;20.27;35.06
67093;SHT31;54011;50.772;7.730;2023-04-25T14:39:12;20.45;34.80
67093;SHT31;54011;50.772;7.730;2023-04-25T14:41:39;20.74;34.84
67093;SHT31;54011;50.772;7.730;2023-04-25T14:44:04;18.69;37.28
67093;SHT31;54011;50.772;7.730;2023-04-25T14:46:31;18.48;37.64
67093;SHT31;54011;50.772;7.730;2023-04-25T14:48:57;20.14;36.67
67093;SHT31;54011;50.772;7.730;2023-04-25T14:51:22;20.98;34.57
67093;SHT31;54011;50.772;7.730;2023-04-25T14:53:48;19.81;36.81
67093;SHT31;54011;50.772;7.730;2023-04-25T14:56:15;21.06;35.28
67093;SHT31;54011;50.772;7.730;2023-04-25T14:58:41;21.04;34.24
67093;SHT31;54011;50.772;7.730;2023-04-25T15:01:08;20.37;34.71
67093;SHT31;54011;50.772;7.730;2023-04-25T15:03:34;21.19;36.12
67093;SHT31;54011;50.772;7.730;2023-04-25T15:06:02;21.42;34.01
67093;SHT31;54011;50.772;7.730;2023-04-25T15:08:27;21.64;35.98
67093;SHT31;54011;50.772;7.730;2023-04-25T15:10:53;22.04;33.77
67093;SHT31;54011;50.772;7.730;2023-04-25T15:13:19;21.05;32.29
67093;SHT31;54011;50.772;7.730;2023-04-25T15:15:45;20.80;32.98
67093;SHT31;54011;50.772;7.730;2023-04-25T15:18:16;20.34;33.93
67093;SHT31;54011;50.772;7.730;2023-04-25T15:20:42;20.34;33.49
67093;SHT31;54011;50.772;7.730;2023-04-25T15:23:08;20.85;30.95
67093;SHT31;54011;50.772;7.730;2023-04-25T15:25:34;22.34;30.26
67093;SHT31;54011;50.772;7.730;2023-04-25T15:28:00;21.56;30.68
67093;SHT31;54011;50.772;7.730;2023-04-25T15:30:27;18.74;32.97
67093;SHT31;54011;50.772;7.730;2023-04-25T15:32:53;18.49;33.67
67093;SHT31;54011;50.772;7.730;2023-04-25T15:35:19;20.48;31.69
67093;SHT31;54011;50.772;7.730;2023-04-25T15:37:45;21.33;31.50
67093;SHT31;54011;50.772;7.730;2023-04-25T15:40:14;21.89;31.80
67093;SHT31;54011;50.772;7.730;2023-04-25T15:42:45;22.30;30.22
67093;SHT31;54011;50.772;7.730;2023-04-25T15:45:22;21.45;29.50
67093;SHT31;54011;50.772;7.730;2023-04-25T15:47:51;20.80;31.62
67093;SHT31;54011;50.772;7.730;2023-04-25T15:50:18;21.76;29.98
67093;SHT31;54011;50.772;7.730;2023-04-25T15:52:43;23.09;29.01